Time;durP1;ratioP1;P1;durP2;ratioP2;P2;SDS_P1;SDS_P2;PMS_P1;PMS_P2;Temp;Humidity;BMP_temperature;BMP_pressure;BME280_temperature;BME280_humidity;BME280_pressure;Samples;Min_cycle;Max_cycle;Signal;HPM_P1;HPM_P2
2024/01/10 00:01:33;;;;;;;7.13;1.60;;;-2.70;99.90;;;;;;5033378;28;20472;-74
2024/01/10 00:03:59;;;;;;;4.15;1.33;;;-2.70;99.90;;;;;;5024199;28;20025;-73
2024/01/10 00:06:24;;;;;;;1.80;0.82;;;-2.80;99.90;;;;;;5025066;28;20490;-74
2024/01/10 00:08:50;;;;;;;4.15;0.88;;;-2.80;99.90;;;;;;5041977;28;20116;-74
2024/01/10 00:11:16;;;;;;;2.40;1.10;;;-2.80;99.90;;;;;;5046433;28;20029;-74
2024/01/10 00:13:41;;;;;;;2.25;1.17;;;-2.80;99.90;;;;;;5025650;28;20140;-74
2024/01/10 00:16:07;;;;;;;3.30;1.08;;;-2.90;99.90;;;;;;5023851;28;20021;-72
2024/01/10 00:18:34;;;;;;;2.97;1.15;;;-2.80;99.90;;;;;;5024218;28;20045;-74
2024/01/10 00:20:59;;;;;;;1.88;0.93;;;-2.80;99.90;;;;;;5025171;28;20038;-72
2024/01/10 00:23:25;;;;;;;2.95;1.13;;;-2.90;99.90;;;;;;5028175;28;20109;-73
2024/01/10 00:25:50;;;;;;;4.50;1.60;;;-2.90;99.90;;;;;;5012039;28;20084;-73
2024/01/10 00:28:17;;;;;;;2.63;1.02;;;-2.90;99.90;;;;;;5010661;28;20036;-74
2024/01/10 00:30:48;;;;;;;2.45;0.80;;;-2.80;99.90;;;;;;5019259;28;20044;-74
2024/01/10 00:33:14;;;;;;;3.75;1.50;;;-2.90;99.90;;;;;;5024175;28;20771;-74
2024/01/10 00:35:39;;;;;;;4.80;1.17;;;-2.90;99.90;;;;;;5009905;28;20087;-74
2024/01/10 00:38:05;;;;;;;6.50;0.93;;;-2.90;99.90;;;;;;5024077;28;20045;-74
2024/01/10 00:40:31;;;;;;;2.90;1.08;;;-3.00;99.90;;;;;;5015806;28;20040;-74
2024/01/10 00:42:56;;;;;;;4.00;1.20;;;-3.00;99.90;;;;;;5023615;28;20516;-73
2024/01/10 00:45:22;;;;;;;2.45;0.82;;;-3.00;99.90;;;;;;5012455;28;20121;-74
2024/01/10 00:47:51;;;;;;;2.13;0.77;;;-3.00;99.90;;;;;;5004242;28;20069;-74
2024/01/10 00:50:17;;;;;;;3.75;1.35;;;-3.00;99.90;;;;;;5013779;28;20042;-73
2024/01/10 00:52:46;;;;;;;2.55;1.30;;;-3.00;99.90;;;;;;5022503;28;20529;-74
2024/01/10 00:55:12;;;;;;;4.30;1.52;;;-3.00;99.90;;;;;;5020175;28;20363;-73
2024/01/10 00:57:38;;;;;;;2.35;1.10;;;-3.00;99.90;;;;;;5035707;28;20733;-74
2024/01/10 01:00:09;;;;;;;4.30;1.33;;;-3.10;99.90;;;;;;5045490;28;20107;-72
2024/01/10 01:02:35;;;;;;;3.95;1.08;;;-3.00;99.90;;;;;;5010692;28;20044;-73
2024/01/10 01:05:01;;;;;;;3.03;1.02;;;-3.10;99.90;;;;;;5014236;28;20105;-74
2024/01/10 01:07:27;;;;;;;5.00;1.58;;;-3.10;99.90;;;;;;5036434;28;20060;-73
2024/01/10 01:09:53;;;;;;;3.17;1.13;;;-3.10;99.90;;;;;;5047029;28;20829;-74
2024/01/10 01:12:18;;;;;;;2.78;1.25;;;-3.10;99.90;;;;;;5042597;28;20128;-72
2024/01/10 01:14:44;;;;;;;3.83;1.45;;;-3.10;99.90;;;;;;5030564;28;20037;-72
2024/01/10 01:17:09;;;;;;;5.28;0.98;;;-3.10;99.90;;;;;;5023101;28;20037;-72
2024/01/10 01:19:35;;;;;;;3.20;1.08;;;-3.10;99.90;;;;;;5009364;28;20104;-73
2024/01/10 01:22:01;;;;;;;6.47;1.60;;;-3.10;99.90;;;;;;5024215;28;20123;-73
2024/01/10 01:24:26;;;;;;;4.03;1.38;;;-3.10;99.90;;;;;;5026876;28;20397;-73
2024/01/10 01:26:52;;;;;;;3.67;0.90;;;-3.10;99.90;;;;;;5019804;28;20156;-74
2024/01/10 01:29:18;;;;;;;3.90;1.77;;;-3.10;99.90;;;;;;5029033;28;20087;-74
2024/01/10 01:31:43;;;;;;;3.35;1.30;;;-3.10;99.90;;;;;;5021630;28;20026;-72
2024/01/10 01:34:09;;;;;;;4.57;1.30;;;-3.10;99.90;;;;;;5018670;28;20033;-73
2024/01/10 01:36:35;;;;;;;3.92;1.25;;;-3.10;99.90;;;;;;5017785;28;20069;-73
2024/01/10 01:39:00;;;;;;;4.00;1.35;;;-3.10;99.90;;;;;;5019633;28;20038;-74
2024/01/10 01:41:26;;;;;;;2.72;1.20;;;-3.10;99.90;;;;;;5019763;28;20468;-73
2024/01/10 01:43:51;;;;;;;2.50;1.20;;;-3.10;99.90;;;;;;5026400;28;20033;-74
2024/01/10 01:46:18;;;;;;;2.15;1.00;;;-3.10;99.90;;;;;;5027855;28;20688;-73
2024/01/10 01:48:43;;;;;;;2.90;1.20;;;-3.20;99.90;;;;;;5026319;28;20065;-73
2024/01/10 01:51:11;;;;;;;4.30;1.23;;;-3.20;99.90;;;;;;5016261;28;20065;-73
2024/01/10 01:53:37;;;;;;;4.15;1.83;;;-3.20;99.90;;;;;;5024318;28;20124;-75
2024/01/10 01:56:06;;;;;;;3.42;1.23;;;-3.20;99.90;;;;;;5016823;28;20029;-73
2024/01/10 01:58:33;;;;;;;5.85;1.92;;;-3.20;99.90;;;;;;5039867;28;20566;-73
2024/01/10 02:00:59;;;;;;;6.50;1.30;;;-3.20;99.90;;;;;;5026641;28;20050;-73
2024/01/10 02:03:26;;;;;;;3.72;1.38;;;-3.20;99.90;;;;;;5029708;28;20033;-73
2024/01/10 02:05:52;;;;;;;3.88;2.05;;;-3.20;99.90;;;;;;5020198;28;20033;-74
2024/01/10 02:08:18;;;;;;;5.20;1.63;;;-3.20;99.90;;;;;;5027970;28;20052;-73
2024/01/10 02:10:43;;;;;;;3.22;1.48;;;-3.20;99.90;;;;;;5016719;28;20038;-73
2024/01/10 02:13:11;;;;;;;4.85;1.92;;;-3.20;99.90;;;;;;5007355;28;20038;-72
2024/01/10 02:15:38;;;;;;;3.53;1.65;;;-3.20;99.90;;;;;;5026432;28;20481;-73
2024/01/10 02:18:05;;;;;;;3.10;1.33;;;-3.20;99.90;;;;;;5025260;28;20444;-71
2024/01/10 02:20:31;;;;;;;4.60;1.38;;;-3.20;99.90;;;;;;5008499;28;20419;-73
2024/01/10 02:22:57;;;;;;;3.28;1.38;;;-3.20;99.90;;;;;;5008751;28;20037;-73
2024/01/10 02:25:22;;;;;;;4.30;1.13;;;-3.20;99.90;;;;;;5026629;28;20102;-73
2024/01/10 02:27:48;;;;;;;4.05;1.52;;;-3.20;99.90;;;;;;5026341;28;20540;-73
2024/01/10 02:30:14;;;;;;;3.45;1.42;;;-3.20;99.90;;;;;;5012134;28;20092;-73
2024/01/10 02:32:40;;;;;;;3.92;1.33;;;-3.30;99.90;;;;;;5010688;28;20119;-73
2024/01/10 02:35:06;;;;;;;4.00;1.10;;;-3.30;99.90;;;;;;5010419;28;20033;-73
2024/01/10 02:37:32;;;;;;;2.97;1.25;;;-3.30;99.90;;;;;;5008391;28;20147;-73
2024/01/10 02:39:57;;;;;;;4.25;1.15;;;-3.30;99.90;;;;;;5005336;28;20022;-73
2024/01/10 02:42:23;;;;;;;4.63;1.50;;;-3.30;99.90;;;;;;5023308;28;20033;-73
2024/01/10 02:44:48;;;;;;;4.28;1.40;;;-3.30;99.90;;;;;;5027652;28;20030;-73
2024/01/10 02:47:14;;;;;;;9.18;1.65;;;-3.20;99.90;;;;;;5027661;28;20124;-73
2024/01/10 02:49:40;;;;;;;3.28;1.20;;;-3.30;99.90;;;;;;5025562;28;20037;-73
2024/01/10 02:52:05;;;;;;;2.33;1.30;;;-3.30;99.90;;;;;;5025202;28;20365;-73
2024/01/10 02:54:31;;;;;;;3.72;1.60;;;-3.30;99.90;;;;;;5013405;28;20034;-72
2024/01/10 02:56:57;;;;;;;5.03;1.83;;;-3.30;99.90;;;;;;5017747;28;20805;-74
2024/01/10 02:59:22;;;;;;;2.97;1.30;;;-3.30;99.90;;;;;;5018733;28;20030;-73
2024/01/10 03:01:48;;;;;;;4.95;1.50;;;-3.30;99.90;;;;;;5025612;28;20685;-73
2024/01/10 03:04:14;;;;;;;5.07;1.50;;;-3.40;99.90;;;;;;5005977;28;20117;-72
2024/01/10 03:06:39;;;;;;;2.53;1.30;;;-3.40;99.90;;;;;;5010875;28;20025;-73
2024/01/10 03:09:06;;;;;;;3.85;1.45;;;-3.40;99.90;;;;;;5037370;28;20037;-73
2024/01/10 03:11:33;;;;;;;6.03;1.67;;;-3.50;99.90;;;;;;5027806;28;20026;-72
2024/01/10 03:14:10;;;;;;;3.67;1.52;;;-3.40;99.90;;;;;;5020126;28;20478;-73
2024/01/10 03:16:37;;;;;;;3.60;1.77;;;-3.40;99.90;;;;;;5018777;28;20548;-73
2024/01/10 03:19:03;;;;;;;9.13;2.65;;;-3.40;99.90;;;;;;5013327;28;20036;-72
2024/01/10 03:21:29;;;;;;;4.00;1.67;;;-3.40;99.90;;;;;;5026087;28;20022;-73
2024/01/10 03:23:59;;;;;;;3.92;1.70;;;-3.40;99.90;;;;;;5024266;28;20034;-73
2024/01/10 03:26:25;;;;;;;5.85;1.77;;;-3.40;99.90;;;;;;5026176;28;20044;-73
2024/01/10 03:28:51;;;;;;;3.05;1.55;;;-3.50;99.90;;;;;;5024850;28;20156;-73
2024/01/10 03:31:17;;;;;;;4.78;1.50;;;-3.50;99.90;;;;;;5024827;28;20135;-73
2024/01/10 03:33:43;;;;;;;6.88;2.20;;;-3.60;99.90;;;;;;5026512;28;20034;-73
2024/01/10 03:36:15;;;;;;;6.05;1.60;;;-3.60;99.90;;;;;;5026292;28;20030;-73
2024/01/10 03:38:41;;;;;;;4.63;1.80;;;-3.60;99.90;;;;;;5012861;28;20293;-73
2024/01/10 03:41:06;;;;;;;5.40;2.30;;;-3.60;99.90;;;;;;5006409;28;20041;-73
2024/01/10 03:43:32;;;;;;;5.00;2.10;;;-3.60;99.90;;;;;;5026057;28;20176;-73
2024/01/10 03:45:58;;;;;;;3.17;1.67;;;-3.60;99.90;;;;;;5018230;28;20045;-72
2024/01/10 03:48:23;;;;;;;3.10;1.15;;;-3.60;99.90;;;;;;5022982;28;20433;-73
2024/01/10 03:50:49;;;;;;;3.50;1.80;;;-3.60;99.90;;;;;;5025713;28;20045;-74
2024/01/10 03:53:15;;;;;;;5.10;1.80;;;-3.60;99.90;;;;;;5021788;28;20048;-73
2024/01/10 03:55:41;;;;;;;2.53;1.38;;;-3.60;99.90;;;;;;5020622;28;20049;-73
2024/01/10 03:58:07;;;;;;;6.28;1.98;;;-3.60;99.90;;;;;;5034237;28;20031;-73
2024/01/10 04:00:32;;;;;;;3.38;1.40;;;-3.70;99.90;;;;;;5024709;28;20487;-73
2024/01/10 04:02:58;;;;;;;4.82;2.03;;;-3.60;99.90;;;;;;5012671;28;20045;-73
2024/01/10 04:05:25;;;;;;;3.65;1.73;;;-3.70;99.90;;;;;;5014428;28;20039;-73
2024/01/10 04:07:51;;;;;;;4.13;1.73;;;-3.70;99.90;;;;;;5018773;28;20486;-73
2024/01/10 04:10:16;;;;;;;2.88;1.50;;;-3.70;99.90;;;;;;5015038;28;20517;-73
2024/01/10 04:12:43;;;;;;;6.15;1.70;;;-3.70;99.90;;;;;;5013739;28;20034;-73
2024/01/10 04:15:09;;;;;;;6.90;1.75;;;-3.70;99.90;;;;;;5013677;28;20112;-73
2024/01/10 04:17:35;;;;;;;7.53;1.55;;;-3.70;99.90;;;;;;5020535;28;20041;-73
2024/01/10 04:20:02;;;;;;;4.22;2.13;;;-3.80;99.90;;;;;;5025736;28;20041;-73
2024/01/10 04:22:27;;;;;;;4.13;1.40;;;-3.80;99.90;;;;;;5012771;28;20037;-73
2024/01/10 04:24:53;;;;;;;2.63;1.70;;;-3.80;99.90;;;;;;5020779;28;20091;-73
2024/01/10 04:27:18;;;;;;;3.75;1.33;;;-3.80;99.90;;;;;;5019307;28;20045;-72
2024/01/10 04:29:44;;;;;;;3.30;1.73;;;-3.80;99.90;;;;;;5016237;28;20038;-73
2024/01/10 04:32:10;;;;;;;3.90;1.58;;;-3.80;99.90;;;;;;5017569;28;20128;-72
2024/01/10 04:34:36;;;;;;;3.83;1.58;;;-3.90;99.90;;;;;;5022106;28;20515;-73
2024/01/10 04:37:01;;;;;;;4.47;1.52;;;-3.80;99.90;;;;;;5009352;28;20038;-73
2024/01/10 04:39:27;;;;;;;4.72;2.13;;;-3.80;99.90;;;;;;5017261;28;20029;-72
2024/01/10 04:41:53;;;;;;;3.03;1.42;;;-3.80;99.90;;;;;;5021620;28;20046;-72
2024/01/10 04:44:18;;;;;;;6.75;2.00;;;-3.80;99.90;;;;;;5018583;28;20417;-73
2024/01/10 04:46:44;;;;;;;2.95;1.50;;;-3.70;99.90;;;;;;5024134;28;20489;-72
2024/01/10 04:49:10;;;;;;;6.03;1.58;;;-3.70;99.90;;;;;;5007350;28;20030;-71
2024/01/10 04:51:35;;;;;;;4.40;1.67;;;-3.70;99.90;;;;;;5021173;28;20091;-73
2024/01/10 04:54:01;;;;;;;4.03;1.52;;;-3.70;99.90;;;;;;5009354;28;20030;-73
2024/01/10 04:56:27;;;;;;;5.20;1.83;;;-3.80;99.90;;;;;;5026160;28;20421;-73
2024/01/10 04:58:52;;;;;;;6.70;2.28;;;-3.80;99.90;;;;;;5022762;28;20038;-72
2024/01/10 05:01:18;;;;;;;5.30;1.75;;;-3.70;99.90;;;;;;5024857;28;20034;-73
2024/01/10 05:03:44;;;;;;;2.55;1.20;;;-3.70;99.90;;;;;;5023245;28;20061;-72
2024/01/10 05:06:10;;;;;;;5.15;1.63;;;-3.70;99.90;;;;;;5015902;28;20021;-71
2024/01/10 05:08:36;;;;;;;6.22;1.70;;;-3.70;99.90;;;;;;5016334;28;20042;-71
2024/01/10 05:11:02;;;;;;;3.33;1.40;;;-3.80;99.90;;;;;;5024841;28;20043;-72
2024/01/10 05:13:28;;;;;;;4.85;1.33;;;-3.70;99.90;;;;;;5024341;28;20386;-71
2024/01/10 05:15:54;;;;;;;3.30;1.50;;;-3.70;99.90;;;;;;5016797;28;20042;-73
2024/01/10 05:18:20;;;;;;;5.38;1.65;;;-3.70;99.90;;;;;;5009781;28;20030;-73
2024/01/10 05:20:46;;;;;;;4.95;1.60;;;-3.70;99.90;;;;;;5020951;28;20107;-71
2024/01/10 05:23:12;;;;;;;5.72;2.40;;;-3.70;99.90;;;;;;5023571;28;20486;-73
2024/01/10 05:25:37;;;;;;;2.83;1.25;;;-3.60;99.90;;;;;;5025633;28;20041;-72
2024/01/10 05:28:03;;;;;;;6.90;1.90;;;-3.70;99.90;;;;;;5023387;28;20041;-73
2024/01/10 05:30:29;;;;;;;4.60;1.85;;;-3.70;99.90;;;;;;5023386;28;20392;-72
2024/01/10 05:32:54;;;;;;;7.15;2.25;;;-3.70;99.90;;;;;;5020493;28;20685;-73
2024/01/10 05:35:20;;;;;;;3.60;1.42;;;-3.70;99.90;;;;;;5022201;28;20506;-71
2024/01/10 05:37:46;;;;;;;3.85;1.85;;;-3.80;99.90;;;;;;5016085;28;20172;-74
2024/01/10 05:40:11;;;;;;;4.07;1.73;;;-3.70;99.90;;;;;;5022009;28;20120;-73
2024/01/10 05:42:37;;;;;;;5.63;1.70;;;-3.70;99.90;;;;;;5008933;28;20075;-73
2024/01/10 05:45:04;;;;;;;5.57;1.73;;;-3.70;99.90;;;;;;5046251;28;20397;-73
2024/01/10 05:47:30;;;;;;;5.18;1.67;;;-3.70;99.90;;;;;;5031923;28;20064;-73
2024/01/10 05:49:55;;;;;;;4.72;1.70;;;-3.70;99.90;;;;;;5021495;28;20034;-73
2024/01/10 05:52:22;;;;;;;3.58;1.40;;;-3.70;99.90;;;;;;5020374;28;20045;-73
2024/01/10 05:54:48;;;;;;;5.03;2.00;;;-3.70;99.90;;;;;;5023881;28;20041;-73
2024/01/10 05:57:14;;;;;;;5.93;1.73;;;-3.70;99.90;;;;;;5025196;28;20036;-73
2024/01/10 05:59:40;;;;;;;6.22;1.98;;;-3.70;99.90;;;;;;5025876;28;20041;-72
2024/01/10 06:02:06;;;;;;;4.28;1.83;;;-3.70;99.90;;;;;;5027041;28;20563;-73
2024/01/10 06:04:31;;;;;;;6.50;2.17;;;-3.70;99.90;;;;;;5013915;28;20513;-73
2024/01/10 06:06:58;;;;;;;6.13;2.65;;;-3.70;99.90;;;;;;5010244;28;20053;-73
2024/01/10 06:09:23;;;;;;;5.18;2.05;;;-3.70;99.90;;;;;;5044508;28;20033;-72
2024/01/10 06:11:49;;;;;;;5.47;1.92;;;-3.70;99.90;;;;;;5023402;28;20037;-72
2024/01/10 06:14:15;;;;;;;4.45;1.88;;;-3.70;99.90;;;;;;5023758;28;20033;-72
2024/01/10 06:16:40;;;;;;;4.35;2.03;;;-3.70;99.90;;;;;;5008237;28;20038;-74
2024/01/10 06:19:06;;;;;;;3.35;1.83;;;-3.70;99.90;;;;;;5009002;28;20048;-73
2024/01/10 06:21:32;;;;;;;5.97;2.35;;;-3.70;99.90;;;;;;5025810;28;20025;-73
2024/01/10 06:23:57;;;;;;;3.80;1.67;;;-3.70;99.90;;;;;;5009204;28;20083;-73
2024/01/10 06:26:23;;;;;;;4.75;2.15;;;-3.70;99.90;;;;;;5034390;28;20037;-72
2024/01/10 06:28:48;;;;;;;7.05;1.88;;;-3.70;99.90;;;;;;5018743;28;20037;-72
2024/01/10 06:31:14;;;;;;;6.70;2.15;;;-3.70;99.90;;;;;;5027195;28;20579;-73
2024/01/10 06:33:40;;;;;;;6.35;1.80;;;-3.80;99.90;;;;;;5023723;28;20029;-73
2024/01/10 06:36:05;;;;;;;8.45;2.50;;;-3.80;99.90;;;;;;5014017;28;20128;-73
2024/01/10 06:38:31;;;;;;;9.57;1.83;;;-3.70;99.90;;;;;;5023905;28;20047;-73
2024/01/10 06:40:57;;;;;;;5.78;1.88;;;-3.70;99.90;;;;;;5014504;28;20037;-73
2024/01/10 06:43:23;;;;;;;5.72;2.25;;;-3.80;99.90;;;;;;5014558;28;20401;-72
2024/01/10 06:45:49;;;;;;;4.20;1.80;;;-3.80;99.90;;;;;;5017872;28;20048;-73
2024/01/10 06:48:15;;;;;;;4.15;1.85;;;-3.80;99.90;;;;;;5021921;28;20033;-73
2024/01/10 06:50:40;;;;;;;4.45;1.92;;;-3.80;99.90;;;;;;5024532;28;20189;-73
2024/01/10 06:53:06;;;;;;;5.97;2.17;;;-3.80;99.90;;;;;;5017920;28;20038;-72
2024/01/10 06:55:32;;;;;;;6.38;3.13;;;-3.90;99.90;;;;;;5021550;28;20033;-72
2024/01/10 06:57:57;;;;;;;3.47;1.80;;;-3.90;99.90;;;;;;5036695;28;20037;-73
2024/01/10 07:00:23;;;;;;;7.38;2.03;;;-3.90;99.90;;;;;;5039673;28;20493;-73
2024/01/10 07:02:49;;;;;;;3.15;1.55;;;-3.90;99.90;;;;;;5014665;28;20116;-73
2024/01/10 07:05:15;;;;;;;4.53;1.70;;;-3.90;99.90;;;;;;5018198;28;20108;-72
2024/01/10 07:07:41;;;;;;;6.60;1.73;;;-3.90;99.90;;;;;;5021004;28;20397;-72
2024/01/10 07:10:07;;;;;;;5.38;1.88;;;-4.00;99.90;;;;;;5021834;28;20065;-73
2024/01/10 07:12:35;;;;;;;5.22;2.50;;;-4.00;99.90;;;;;;5017352;28;20070;-72
2024/01/10 07:15:04;;;;;;;6.75;2.50;;;-3.90;99.90;;;;;;5005226;28;20029;-73
2024/01/10 07:17:29;;;;;;;4.75;1.90;;;-3.90;99.90;;;;;;5016597;28;20610;-71
2024/01/10 07:19:56;;;;;;;4.30;2.05;;;-3.90;99.90;;;;;;5033206;28;20037;-72
2024/01/10 07:22:22;;;;;;;4.05;1.88;;;-3.90;99.90;;;;;;5026087;28;20040;-72
2024/01/10 07:24:48;;;;;;;3.63;1.80;;;-3.90;99.90;;;;;;5026869;28;20052;-73
2024/01/10 07:27:14;;;;;;;4.35;1.52;;;-3.90;99.90;;;;;;5010757;28;20378;-73
2024/01/10 07:29:42;;;;;;;4.97;1.70;;;-3.90;99.90;;;;;;5022403;28;20125;-71
2024/01/10 07:32:11;;;;;;;6.50;1.88;;;-3.90;99.90;;;;;;5020815;28;20039;-73
2024/01/10 07:34:40;;;;;;;5.28;2.22;;;-4.00;99.90;;;;;;5025506;28;20130;-73
2024/01/10 07:37:06;;;;;;;9.70;2.60;;;-4.00;99.90;;;;;;5026011;28;20037;-72
2024/01/10 07:39:31;;;;;;;7.50;2.38;;;-4.00;99.90;;;;;;5025224;28;20021;-73
2024/01/10 07:41:57;;;;;;;5.45;1.77;;;-3.90;99.90;;;;;;5023850;28;20071;-74
2024/01/10 07:44:24;;;;;;;7.75;2.25;;;-3.90;99.90;;;;;;5025341;28;20053;-73
2024/01/10 07:46:53;;;;;;;3.78;1.98;;;-3.90;99.90;;;;;;5023043;28;20034;-71
2024/01/10 07:49:21;;;;;;;4.53;2.30;;;-4.00;99.90;;;;;;5018126;28;20029;-72
2024/01/10 07:51:47;;;;;;;6.10;1.75;;;-4.00;99.90;;;;;;5006570;28;20042;-73
2024/01/10 07:54:13;;;;;;;5.05;2.28;;;-3.90;99.90;;;;;;5005247;28;20064;-71
2024/01/10 07:56:39;;;;;;;6.13;2.28;;;-3.90;99.90;;;;;;5014934;28;20128;-72
2024/01/10 07:59:05;;;;;;;6.20;2.00;;;-3.90;99.90;;;;;;5014258;28;20041;-72
2024/01/10 08:01:30;;;;;;;3.55;1.75;;;-3.90;99.90;;;;;;5021900;28;20481;-73
2024/01/10 08:03:56;;;;;;;7.93;2.00;;;-4.00;99.90;;;;;;5023641;28;20029;-73
2024/01/10 08:06:22;;;;;;;4.57;2.40;;;-3.90;99.90;;;;;;5011058;28;20026;-72
2024/01/10 08:08:48;;;;;;;6.75;2.08;;;-3.90;99.90;;;;;;5034950;28;20037;-72
2024/01/10 08:11:13;;;;;;;7.68;2.55;;;-3.90;99.90;;;;;;5026040;28;20042;-71
2024/01/10 08:13:39;;;;;;;5.90;2.17;;;-3.90;99.90;;;;;;5019915;28;20042;-74
2024/01/10 08:16:08;;;;;;;6.35;2.28;;;-3.90;99.90;;;;;;5012384;28;20449;-73
2024/01/10 08:18:34;;;;;;;6.00;2.25;;;-3.80;99.90;;;;;;5005061;28;20042;-72
2024/01/10 08:20:59;;;;;;;6.10;1.95;;;-3.90;99.90;;;;;;5012744;28;20037;-73
2024/01/10 08:23:25;;;;;;;5.97;2.17;;;-3.90;99.90;;;;;;5012348;28;20036;-72
2024/01/10 08:25:50;;;;;;;7.47;2.38;;;-3.90;99.90;;;;;;5004119;28;20057;-72
2024/01/10 08:28:16;;;;;;;4.53;1.77;;;-3.90;99.90;;;;;;5016734;28;20061;-72
2024/01/10 08:30:42;;;;;;;5.13;2.17;;;-3.90;99.90;;;;;;5009294;28;20038;-73
2024/01/10 08:33:07;;;;;;;5.47;2.20;;;-3.90;99.90;;;;;;5008263;28;20135;-72
2024/01/10 08:35:33;;;;;;;5.13;1.60;;;-3.90;99.90;;;;;;5006414;28;20045;-72
2024/01/10 08:37:58;;;;;;;4.07;1.67;;;-3.80;99.90;;;;;;5022299;28;20051;-73
2024/01/10 08:40:25;;;;;;;9.15;2.10;;;-3.70;99.90;;;;;;5025912;28;20037;-73
2024/01/10 08:42:52;;;;;;;4.40;1.67;;;-3.80;99.90;;;;;;5020795;28;20049;-72
2024/01/10 08:45:17;;;;;;;6.13;1.92;;;-3.80;99.90;;;;;;5006299;28;20494;-72
2024/01/10 08:47:43;;;;;;;4.88;2.08;;;-3.70;99.90;;;;;;5016184;28;20041;-73
2024/01/10 08:50:10;;;;;;;4.13;1.55;;;-3.70;99.90;;;;;;5023318;28;20521;-73
2024/01/10 08:52:38;;;;;;;5.30;1.67;;;-3.70;99.90;;;;;;5015983;28;20045;-72
2024/01/10 08:55:07;;;;;;;5.18;2.00;;;-3.70;99.90;;;;;;5003766;28;20042;-72
2024/01/10 08:57:33;;;;;;;4.70;1.90;;;-3.70;99.90;;;;;;5011911;28;20037;-73
2024/01/10 08:59:59;;;;;;;7.70;2.58;;;-3.60;99.90;;;;;;5022810;28;20124;-73
2024/01/10 09:02:27;;;;;;;3.92;1.67;;;-3.60;99.90;;;;;;5021617;28;20516;-72
2024/01/10 09:04:53;;;;;;;3.22;1.65;;;-3.40;99.90;;;;;;5015009;28;20441;-74
2024/01/10 09:07:19;;;;;;;6.55;2.22;;;-3.40;99.90;;;;;;5024356;28;20021;-73
2024/01/10 09:09:45;;;;;;;6.05;2.10;;;-3.40;99.90;;;;;;5023350;28;20060;-72
2024/01/10 09:12:10;;;;;;;4.32;1.83;;;-3.30;99.90;;;;;;5019384;28;20038;-72
2024/01/10 09:14:36;;;;;;;7.50;1.90;;;-3.20;99.90;;;;;;5011606;28;20042;-73
2024/01/10 09:17:03;;;;;;;8.48;2.83;;;-3.20;99.90;;;;;;5022443;28;20033;-73
2024/01/10 09:19:30;;;;;;;5.68;1.85;;;-3.20;99.90;;;;;;5015810;28;20116;-73
2024/01/10 09:21:57;;;;;;;8.93;2.13;;;-3.00;99.90;;;;;;5019839;28;20030;-73
2024/01/10 09:24:25;;;;;;;10.25;2.17;;;-3.00;99.90;;;;;;5016949;28;20034;-73
2024/01/10 09:26:51;;;;;;;7.00;2.05;;;-2.90;99.90;;;;;;5015090;28;20517;-72
2024/01/10 09:29:17;;;;;;;5.75;1.77;;;-2.80;99.80;;;;;;5015052;28;20099;-73
2024/01/10 09:31:43;;;;;;;6.18;1.80;;;-2.80;99.80;;;;;;5018394;28;20037;-73
2024/01/10 09:34:09;;;;;;;4.53;1.67;;;-2.80;99.70;;;;;;5026300;28;20392;-73
2024/01/10 09:36:34;;;;;;;4.78;2.13;;;-2.70;99.30;;;;;;5011873;28;20141;-73
2024/01/10 09:39:00;;;;;;;7.40;2.15;;;-2.70;99.30;;;;;;5018426;28;20026;-72
2024/01/10 09:41:29;;;;;;;6.40;1.95;;;-2.60;98.90;;;;;;5007997;28;20057;-73
2024/01/10 09:43:55;;;;;;;5.28;2.15;;;-2.60;99.10;;;;;;5006876;28;20104;-73
2024/01/10 09:46:21;;;;;;;6.82;1.77;;;-2.50;99.00;;;;;;5025640;28;20828;-73
2024/01/10 09:48:47;;;;;;;5.93;2.20;;;-2.50;99.10;;;;;;5023061;28;20038;-73
2024/01/10 09:51:13;;;;;;;4.63;1.83;;;-2.40;98.60;;;;;;5007173;28;20042;-72
2024/01/10 09:53:43;;;;;;;9.63;1.98;;;-2.30;98.90;;;;;;5007828;28;20477;-73
2024/01/10 09:56:10;;;;;;;5.97;2.10;;;-2.30;98.80;;;;;;5006804;28;20030;-73
2024/01/10 09:58:39;;;;;;;5.03;1.95;;;-2.30;98.50;;;;;;5017419;28;20052;-72
2024/01/10 10:01:05;;;;;;;5.57;2.22;;;-2.10;98.10;;;;;;5016153;28;20185;-73
2024/01/10 10:03:36;;;;;;;6.47;2.03;;;-2.10;97.80;;;;;;5008762;28;20064;-72
2024/01/10 10:06:01;;;;;;;4.70;2.25;;;-2.10;98.00;;;;;;5005521;28;20034;-72
2024/01/10 10:08:27;;;;;;;5.03;1.77;;;-2.00;98.20;;;;;;5037168;28;20371;-73
2024/01/10 10:10:52;;;;;;;4.88;2.08;;;-2.00;97.60;;;;;;5045593;28;20120;-74
2024/01/10 10:13:45;;;;;;;6.47;3.15;;;-1.90;97.70;;;;;;5028620;28;20029;-73
2024/01/10 10:16:12;;;;;;;5.50;1.75;;;-1.90;97.80;;;;;;5017913;28;20122;-72
2024/01/10 10:18:39;;;;;;;5.38;2.42;;;-1.80;97.70;;;;;;5010938;28;20109;-70
2024/01/10 10:21:11;;;;;;;9.32;2.85;;;-1.80;97.10;;;;;;5010301;28;20121;-72
2024/01/10 10:23:38;;;;;;;6.03;2.15;;;-1.70;97.40;;;;;;5008509;28;20507;-72
2024/01/10 10:26:13;;;;;;;9.23;2.95;;;-1.70;97.30;;;;;;5006500;28;20043;-73
2024/01/10 10:28:40;;;;;;;8.45;2.30;;;-1.60;97.10;;;;;;5005724;28;20066;-73
2024/01/10 10:31:06;;;;;;;7.05;2.30;;;-1.50;97.20;;;;;;5020950;28;20026;-73
2024/01/10 10:33:33;;;;;;;5.28;1.83;;;-1.50;97.10;;;;;;5020816;28;20046;-73
2024/01/10 10:35:59;;;;;;;8.00;2.17;;;-1.40;96.60;;;;;;5006298;28;20030;-72
2024/01/10 10:38:24;;;;;;;5.20;1.92;;;-1.30;96.40;;;;;;5021857;28;20037;-72
2024/01/10 10:40:51;;;;;;;8.07;2.35;;;-1.30;96.80;;;;;;5019557;28;20061;-71
2024/01/10 10:43:19;;;;;;;6.60;2.00;;;-1.20;96.30;;;;;;5027641;28;20481;-73
2024/01/10 10:45:51;;;;;;;6.53;2.60;;;-1.20;96.00;;;;;;5022446;28;20107;-72
2024/01/10 10:48:20;;;;;;;5.57;2.20;;;-1.10;96.00;;;;;;5019726;28;20402;-71
2024/01/10 10:50:57;;;;;;;7.28;2.22;;;-1.00;95.80;;;;;;5027310;28;20037;-72
2024/01/10 10:53:27;;;;;;;9.77;3.65;;;-1.00;95.80;;;;;;5013976;28;20177;-73
2024/01/10 10:55:54;;;;;;;10.68;2.92;;;-1.00;95.70;;;;;;5022645;28;20422;-75
2024/01/10 10:58:21;;;;;;;8.43;2.35;;;-0.90;95.70;;;;;;5040587;28;20110;-72
2024/01/10 11:00:48;;;;;;;7.93;2.15;;;-0.80;95.20;;;;;;5045153;28;20580;-73
2024/01/10 11:03:16;;;;;;;9.82;2.35;;;-0.80;95.30;;;;;;5018735;28;20037;-72
2024/01/10 11:05:42;;;;;;;8.30;2.28;;;-0.80;95.20;;;;;;5023068;28;20203;-73
2024/01/10 11:08:11;;;;;;;5.22;2.60;;;-0.70;95.00;;;;;;5030402;28;20045;-71
2024/01/10 11:10:40;;;;;;;5.63;2.33;;;-0.60;94.60;;;;;;5046612;28;20120;-73
2024/01/10 11:13:32;;;;;;;4.70;2.40;;;-0.60;94.50;;;;;;5030091;28;20030;-73
2024/01/10 11:16:16;;;;;;;9.05;2.53;;;-0.50;94.40;;;;;;5005335;28;20144;-73
2024/01/10 11:19:02;;;;;;;5.60;2.55;;;-0.40;94.10;;;;;;5018215;28;20096;-72
2024/01/10 11:21:55;;;;;;;7.38;2.30;;;-0.30;93.90;;;;;;5011119;28;20103;-72
2024/01/10 11:24:21;;;;;;;5.97;2.20;;;-0.30;94.00;;;;;;5005718;28;20041;-72
2024/01/10 11:26:46;;;;;;;6.07;2.45;;;-0.30;93.60;;;;;;5017601;28;20421;-72
2024/01/10 11:29:12;;;;;;;7.47;2.67;;;-0.20;93.90;;;;;;5008519;28;20102;-72
2024/01/10 11:31:39;;;;;;;7.50;2.42;;;-0.10;93.40;;;;;;5021298;28;20481;-71
2024/01/10 11:34:05;;;;;;;6.70;2.33;;;-0.10;93.20;;;;;;5025953;28;20116;-71
2024/01/10 11:36:31;;;;;;;7.25;2.70;;;-0.10;93.40;;;;;;5019393;28;20141;-71
2024/01/10 11:39:04;;;;;;;6.47;2.20;;;-0.10;93.10;;;;;;5004764;28;20038;-73
2024/01/10 11:41:30;;;;;;;6.07;2.38;;;0.00;93.10;;;;;;5004765;28;20561;-74
2024/01/10 11:44:08;;;;;;;7.38;2.33;;;0.00;93.20;;;;;;5018672;28;20122;-72
2024/01/10 11:46:34;;;;;;;9.05;2.22;;;0.00;93.20;;;;;;5025539;28;20077;-72
2024/01/10 11:49:00;;;;;;;5.50;1.90;;;0.10;93.10;;;;;;5025272;28;20048;-72
2024/01/10 11:51:26;;;;;;;6.05;2.20;;;0.10;92.90;;;;;;5021176;28;20034;-72
2024/01/10 11:53:52;;;;;;;5.15;1.92;;;0.20;92.30;;;;;;5024766;28;20084;-74
2024/01/10 11:56:19;;;;;;;6.20;2.03;;;0.20;92.50;;;;;;5026489;28;20375;-72
2024/01/10 11:59:10;;;;;;;5.65;1.77;;;0.20;92.30;;;;;;5039761;28;20082;-73
2024/01/10 12:01:37;;;;;;;6.75;2.22;;;0.20;92.10;;;;;;5044852;28;20515;-74
2024/01/10 12:04:03;;;;;;;8.30;2.20;;;0.20;92.50;;;;;;5044330;28;20607;-72
2024/01/10 12:06:31;;;;;;;6.25;2.33;;;0.20;92.70;;;;;;5045186;28;20029;-73
2024/01/10 12:08:57;;;;;;;6.40;2.58;;;0.20;92.50;;;;;;5024428;28;20429;-73
2024/01/10 12:11:23;;;;;;;7.55;1.95;;;0.20;92.50;;;;;;5026722;28;20088;-72
2024/01/10 12:13:49;;;;;;;7.47;2.10;;;0.20;92.10;;;;;;5005646;28;20041;-72
2024/01/10 12:16:16;;;;;;;12.55;2.58;;;0.30;92.40;;;;;;5004386;28;20034;-72
2024/01/10 12:18:42;;;;;;;5.53;1.92;;;0.20;92.50;;;;;;5009882;28;20555;-73
2024/01/10 12:21:12;;;;;;;8.93;2.30;;;0.30;92.00;;;;;;5024057;28;20458;-73
2024/01/10 12:23:38;;;;;;;6.57;2.17;;;0.30;92.10;;;;;;5025022;28;20087;-72
2024/01/10 12:26:08;;;;;;;8.45;2.38;;;0.30;91.90;;;;;;5034035;28;20367;-73
2024/01/10 12:28:35;;;;;;;8.45;2.58;;;0.40;92.10;;;;;;5028026;28;20038;-73
2024/01/10 12:31:03;;;;;;;7.55;2.10;;;0.30;92.40;;;;;;5004040;28;20038;-71
2024/01/10 12:33:28;;;;;;;8.73;2.30;;;0.30;92.40;;;;;;5011015;28;20112;-73
2024/01/10 12:36:10;;;;;;;8.32;1.90;;;0.40;92.10;;;;;;5019374;28;20124;-73
2024/01/10 12:38:40;;;;;;;5.90;1.90;;;0.40;92.00;;;;;;5014046;28;20141;-73
2024/01/10 12:41:08;;;;;;;10.27;2.92;;;0.40;91.80;;;;;;5009397;28;20568;-73
2024/01/10 12:43:34;;;;;;;7.30;2.00;;;0.40;92.30;;;;;;5008876;28;20041;-73
2024/01/10 12:46:11;;;;;;;7.03;2.10;;;0.40;92.50;;;;;;5009910;28;20052;-72